首页
METAR-TAF:

METAR-TAF

机场 :

蒂魯吉拉帕利國際機場

Tiruchirappalli, 印度

纬度: 10-46N, 经度: 078-43E, 海拔: 85米

当前天气观测

该预报发布于26分钟前的14:00 UTC
风速6节,风向
温度 33°C
湿度 71%
气压 1006 hPa
能見度: 5000
散云层高于1600英尺
散云层高于2000英尺
少量云层高于2500英尺, 积雨云.
霾,

METAR: VOTR 171400Z 17006KT 5000 HZ SCT016 SCT020 FEW025CB 33/27 Q1006 NOSIG

时间: 19:56 (14:26 UTC)

预报

该预报发布于3小时和26分钟前的11:00 UTC
预报有效从17日的 12点(UTC)到 18日的 18点(UTC)
风速5节,风向南转西南
能見度: 5000
散云层高于2000英尺
多云层高于10000英尺
短暂存在
从 17日的 12点(UTC)到 17日的 18点(UTC)
散云层高于1800英尺
多云层高于10000英尺
成为
从 17日的 21点(UTC)到 17日的 22点(UTC)
风速5节,风向西
成为
从 18日的 03点(UTC)到 18日的 04点(UTC)
风速10节,风向西
成为
从 18日的 06点(UTC)到 18日的 07点(UTC)
风速10节,风向西,有时为20节阵风
能見度: 6000
成为
从 18日的 12点(UTC)到 18日的 13点(UTC)
风速5节,风向南转西南
能見度: 5000

TAF: VOTR 171100Z 1712/1818 20005KT 5000 HZ/BR SCT020 BKN100 TEMPO 1712/1718 SCT018 FEW025TCU/CB BKN100 BECMG 1721/1722 27005KT BECMG 1803/1804 27010KT BECMG 1806/1807 27010G20KT 6000 BECMG 1812/1813 20005KT 5000 HZ/BR

超过4000个机场的气象观测和天气预报(METAR&TAF报告)。

可查询的气象台以黄色和红色小点在地图上表示。

将鼠标移到小点上方,可查看气象台名称。

然后点击查看天气观测和预报。

如需切换地图:点击带黑十字的绿色按钮放大地图;点击带横线的绿色按钮缩小地图;或者点击绿色箭头查看邻近地区的地图。


METAR-TAF: